createdAt,value
2017-11-03T00:01:11.592Z,9.97
2017-11-03T00:03:39.420Z,13.83
2017-11-03T00:06:07.234Z,8.37
2017-11-03T00:08:35.052Z,8.80
2017-11-03T00:11:03.316Z,9.17
2017-11-03T00:13:31.883Z,8.47
2017-11-03T00:16:00.540Z,11.50
2017-11-03T00:18:28.359Z,12.83
2017-11-03T00:20:56.170Z,7.70
2017-11-03T00:23:24.018Z,7.03
2017-11-03T00:25:52.097Z,12.40
2017-11-03T00:28:19.877Z,9.53
2017-11-03T00:30:47.737Z,9.30
2017-11-03T00:33:15.578Z,9.90
2017-11-03T00:35:43.489Z,7.80
2017-11-03T00:38:11.355Z,11.50
2017-11-03T00:40:40.031Z,8.80
2017-11-03T00:43:08.968Z,7.13
2017-11-03T00:45:36.828Z,7.67
2017-11-03T00:48:05.523Z,14.23
2017-11-03T00:50:33.480Z,10.57
2017-11-03T00:53:02.258Z,7.07
2017-11-03T00:55:30.853Z,14.93
2017-11-03T00:57:59.470Z,19.47
2017-11-03T01:00:27.426Z,17.03
2017-11-03T01:02:55.894Z,11.67
2017-11-03T01:05:23.722Z,12.80
2017-11-03T01:07:51.504Z,14.45
2017-11-03T01:10:20.096Z,17.67
2017-11-03T01:12:48.667Z,14.90
2017-11-03T01:15:17.488Z,16.10
2017-11-03T01:17:45.329Z,18.77
2017-11-03T01:20:13.915Z,17.37
2017-11-03T01:22:42.663Z,16.30
2017-11-03T01:25:11.227Z,18.37
2017-11-03T01:27:39.033Z,19.40
2017-11-03T01:30:06.831Z,16.10
2017-11-03T01:32:34.640Z,21.20
2017-11-03T01:35:03.939Z,18.40
2017-11-03T01:37:31.758Z,25.03
2017-11-03T01:40:03.613Z,16.83
2017-11-03T01:42:31.673Z,23.90
2017-11-03T01:45:00.235Z,20.10
2017-11-03T01:47:28.097Z,28.00
2017-11-03T01:49:55.983Z,25.03
2017-11-03T01:52:24.608Z,28.60
2017-11-03T01:54:52.421Z,22.67
2017-11-03T01:57:20.240Z,25.83
2017-11-03T01:59:48.131Z,20.40
2017-11-03T02:02:15.965Z,19.80
2017-11-03T02:04:43.797Z,19.13
2017-11-03T02:07:12.431Z,11.67
2017-11-03T02:09:40.308Z,10.00
2017-11-03T02:12:08.186Z,16.60
2017-11-03T02:14:36.100Z,19.33
2017-11-03T02:17:03.987Z,13.00
2017-11-03T02:19:31.896Z,20.47
2017-11-03T02:21:59.799Z,15.10
2017-11-03T02:24:27.677Z,15.20
2017-11-03T02:26:55.484Z,12.30
2017-11-03T02:29:23.368Z,21.37
2017-11-03T02:31:51.252Z,12.50
2017-11-03T02:34:19.901Z,16.83
2017-11-03T02:36:47.799Z,12.27
2017-11-03T02:39:16.479Z,10.60
2017-11-03T02:41:45.101Z,15.80
2017-11-03T02:44:12.985Z,15.07
2017-11-03T02:46:40.845Z,13.23
2017-11-03T02:49:08.742Z,13.07
2017-11-03T02:51:36.660Z,13.53
2017-11-03T02:54:04.479Z,11.20
2017-11-03T02:56:32.375Z,15.40
2017-11-03T02:59:00.223Z,10.23
2017-11-03T03:01:28.813Z,9.80
2017-11-03T03:03:57.379Z,13.40
2017-11-03T03:06:25.218Z,14.83
2017-11-03T03:08:53.067Z,18.30
2017-11-03T03:11:21.265Z,6.83
2017-11-03T03:13:49.129Z,13.03
2017-11-03T03:16:17.262Z,7.80
2017-11-03T03:18:45.122Z,6.00
2017-11-03T03:21:13.000Z,9.43
2017-11-03T03:23:40.892Z,7.40
2017-11-03T03:26:08.824Z,9.67
2017-11-03T03:28:36.760Z,8.87
2017-11-03T03:31:04.714Z,9.30
2017-11-03T03:33:33.925Z,5.20
2017-11-03T03:36:02.019Z,9.53
2017-11-03T03:38:29.997Z,9.90
2017-11-03T03:40:58.026Z,10.17
2017-11-03T03:43:25.989Z,11.97
2017-11-03T03:45:53.900Z,5.70
2017-11-03T03:48:22.782Z,14.33
2017-11-03T03:50:51.432Z,6.43
2017-11-03T03:53:19.280Z,8.47
2017-11-03T03:55:47.275Z,4.90
2017-11-03T03:58:15.236Z,6.60
2017-11-03T04:00:43.175Z,9.20
2017-11-03T04:03:11.220Z,8.43
2017-11-03T04:05:39.887Z,9.70
2017-11-03T04:08:08.706Z,10.63
2017-11-03T04:10:36.660Z,7.00
2017-11-03T04:13:04.566Z,10.50
2017-11-03T04:15:32.396Z,10.27
2017-11-03T04:18:00.269Z,10.30
2017-11-03T04:20:28.597Z,8.23
2017-11-03T04:22:56.404Z,13.80
2017-11-03T04:25:24.361Z,7.93
2017-11-03T04:27:53.001Z,7.40
2017-11-03T04:30:20.900Z,10.87
2017-11-03T04:32:48.747Z,13.63
2017-11-03T04:35:16.595Z,13.20
2017-11-03T04:37:46.256Z,6.80
2017-11-03T04:40:14.891Z,6.47
2017-11-03T04:42:42.871Z,9.73
2017-11-03T04:45:11.112Z,8.50
2017-11-03T04:47:38.929Z,7.83
2017-11-03T04:50:07.638Z,10.50
2017-11-03T04:52:35.501Z,9.87
2017-11-03T04:55:04.142Z,6.40
2017-11-03T04:57:32.791Z,4.87
2017-11-03T05:00:00.612Z,10.70
2017-11-03T05:02:29.128Z,7.77
2017-11-03T05:04:57.501Z,17.20
2017-11-03T05:07:26.129Z,23.97
2017-11-03T05:09:55.050Z,30.33
2017-11-03T05:12:23.901Z,34.13
2017-11-03T05:14:51.885Z,21.90
2017-11-03T05:17:19.769Z,18.37
2017-11-03T05:19:47.909Z,10.80
2017-11-03T05:22:15.740Z,8.97
2017-11-03T05:24:44.378Z,8.90
2017-11-03T05:27:12.285Z,10.70
2017-11-03T05:29:41.175Z,11.50
2017-11-03T05:32:09.842Z,11.27
2017-11-03T05:34:38.672Z,12.20
2017-11-03T05:37:06.681Z,12.70
2017-11-03T05:39:34.584Z,17.63
2017-11-03T05:42:03.219Z,12.33
2017-11-03T05:44:31.083Z,12.87
2017-11-03T05:46:58.910Z,14.70
2017-11-03T05:49:26.983Z,9.80
2017-11-03T05:51:54.820Z,7.40
2017-11-03T05:54:22.803Z,12.30
2017-11-03T05:56:51.479Z,13.83
2017-11-03T05:59:20.182Z,12.23
2017-11-03T06:01:47.997Z,9.33
2017-11-03T06:04:15.824Z,24.40
2017-11-03T06:06:43.733Z,16.97
2017-11-03T06:09:11.882Z,11.80
2017-11-03T06:11:39.763Z,10.10
2017-11-03T06:14:07.625Z,16.50
2017-11-03T06:16:35.472Z,13.07
2017-11-03T06:19:03.325Z,16.07
2017-11-03T06:21:31.230Z,11.00
2017-11-03T06:23:59.147Z,12.67
2017-11-03T06:26:27.908Z,13.40
2017-11-03T06:28:55.858Z,24.23
2017-11-03T06:31:23.754Z,28.17
2017-11-03T06:33:52.403Z,13.00
2017-11-03T06:36:20.273Z,15.33
2017-11-03T06:38:48.192Z,15.67
2017-11-03T06:41:16.036Z,9.23
2017-11-03T06:43:44.295Z,11.53
2017-11-03T06:46:12.144Z,8.50
2017-11-03T06:48:40.093Z,25.13
2017-11-03T06:51:08.236Z,12.50
2017-11-03T06:53:36.939Z,12.33
2017-11-03T06:56:04.804Z,11.33
2017-11-03T06:58:32.734Z,15.50
2017-11-03T07:01:01.151Z,13.00
2017-11-03T07:03:29.017Z,11.10
2017-11-03T07:05:57.432Z,10.10
2017-11-03T07:08:25.768Z,17.57
2017-11-03T07:10:53.724Z,13.80
2017-11-03T07:13:22.397Z,11.53
2017-11-03T07:15:51.160Z,15.83
2017-11-03T07:18:19.040Z,17.90
2017-11-03T07:20:46.990Z,18.33
2017-11-03T07:23:15.594Z,11.10
2017-11-03T07:25:43.521Z,17.25
2017-11-03T07:28:11.432Z,16.93
2017-11-03T07:30:39.346Z,10.53
2017-11-03T07:33:07.288Z,18.67
2017-11-03T07:35:35.917Z,15.37
2017-11-03T07:38:03.813Z,18.60
2017-11-03T07:40:32.490Z,17.00
2017-11-03T07:43:00.385Z,20.43
2017-11-03T07:45:29.054Z,17.17
2017-11-03T07:47:56.969Z,18.93
2017-11-03T07:50:24.860Z,27.10
2017-11-03T07:52:52.708Z,19.13
2017-11-03T07:55:20.533Z,24.33
2017-11-03T07:57:49.141Z,27.87
2017-11-03T08:00:17.064Z,17.60
2017-11-03T08:02:44.972Z,19.57
2017-11-03T08:05:13.208Z,20.13
2017-11-03T08:07:41.107Z,27.10
2017-11-03T08:10:09.735Z,25.67
2017-11-03T08:12:37.618Z,27.97
2017-11-03T08:15:05.505Z,24.57
2017-11-03T08:17:34.091Z,20.07
2017-11-03T08:20:01.906Z,27.20
2017-11-03T08:22:29.733Z,15.50
2017-11-03T08:24:58.331Z,16.67
2017-11-03T08:27:26.217Z,22.47
2017-11-03T08:29:54.072Z,18.43
2017-11-03T08:32:21.917Z,13.80
2017-11-03T08:34:50.511Z,16.90
2017-11-03T08:37:19.110Z,27.97
2017-11-03T08:39:46.956Z,34.97
2017-11-03T08:42:15.568Z,27.93
2017-11-03T08:44:43.452Z,33.70
2017-11-03T08:47:11.373Z,48.00
2017-11-03T08:49:39.288Z,36.40
2017-11-03T08:52:07.299Z,38.97
2017-11-03T08:54:35.917Z,42.77
2017-11-03T08:57:03.879Z,41.80
2017-11-03T08:59:31.815Z,33.60
2017-11-03T09:02:00.461Z,36.72
2017-11-03T09:04:28.341Z,46.53
2017-11-03T09:06:56.404Z,39.83
2017-11-03T09:09:24.253Z,26.63
2017-11-03T09:11:52.243Z,38.13
2017-11-03T09:14:20.100Z,31.63
2017-11-03T09:16:48.805Z,27.67
2017-11-03T09:19:16.711Z,19.27
2017-11-03T09:21:44.993Z,22.97
2017-11-03T09:24:12.949Z,19.07
2017-11-03T09:26:41.676Z,15.13
2017-11-03T09:29:09.540Z,20.87
2017-11-03T09:31:37.472Z,19.13
2017-11-03T09:34:05.348Z,14.70
2017-11-03T09:36:33.240Z,14.60
2017-11-03T09:39:03.191Z,10.30
2017-11-03T09:41:32.090Z,13.73
2017-11-03T09:43:59.995Z,15.73
2017-11-03T09:46:28.678Z,17.97
2017-11-03T09:48:56.588Z,22.00
2017-11-03T09:51:24.468Z,21.93
2017-11-03T09:53:52.308Z,13.37
2017-11-03T09:56:20.280Z,16.00
2017-11-03T09:58:48.233Z,12.40
2017-11-03T10:01:16.065Z,10.50
2017-11-03T10:03:44.648Z,14.93
2017-11-03T10:06:13.280Z,18.57
2017-11-03T10:08:41.637Z,8.70
2017-11-03T10:11:09.572Z,16.43
2017-11-03T10:13:38.221Z,8.17
2017-11-03T10:16:06.099Z,14.37
2017-11-03T10:18:34.069Z,18.33
2017-11-03T10:21:02.001Z,21.63
2017-11-03T10:23:29.902Z,14.40
2017-11-03T10:25:58.014Z,12.37
2017-11-03T10:28:25.922Z,13.37
2017-11-03T10:30:53.803Z,16.97
2017-11-03T10:33:21.810Z,15.10
2017-11-03T10:35:49.845Z,13.90
2017-11-03T10:38:17.767Z,8.93
2017-11-03T10:40:45.586Z,8.57
2017-11-03T10:43:13.676Z,12.03
2017-11-03T10:45:42.455Z,7.70
2017-11-03T10:48:10.480Z,10.07
2017-11-03T10:50:38.396Z,8.33
2017-11-03T10:53:08.180Z,12.80
2017-11-03T10:55:36.033Z,24.83
2017-11-03T10:58:03.996Z,7.97
2017-11-03T11:00:32.063Z,14.43
2017-11-03T11:03:01.984Z,17.27
2017-11-03T11:05:29.867Z,10.20
2017-11-03T11:07:57.873Z,7.80
2017-11-03T11:10:26.647Z,8.60
2017-11-03T11:12:55.292Z,17.03
2017-11-03T11:15:23.109Z,13.03
2017-11-03T11:17:51.886Z,12.00
2017-11-03T11:20:20.568Z,17.57
2017-11-03T11:22:48.513Z,12.33
2017-11-03T11:25:16.912Z,9.37
2017-11-03T11:27:45.570Z,15.20
2017-11-03T11:30:13.497Z,8.50
2017-11-03T11:32:41.831Z,14.80
2017-11-03T11:35:09.860Z,13.30
2017-11-03T11:37:38.096Z,11.93
2017-11-03T11:40:06.792Z,9.73
2017-11-03T11:42:35.771Z,12.83
2017-11-03T11:45:03.841Z,15.80
2017-11-03T11:47:32.648Z,17.83
2017-11-03T11:50:01.412Z,10.47
2017-11-03T11:52:30.595Z,10.93
2017-11-03T11:54:58.916Z,10.60
2017-11-03T11:57:27.344Z,12.60
2017-11-03T11:59:55.476Z,13.60
2017-11-03T12:02:23.413Z,15.53
2017-11-03T12:04:52.290Z,10.03
2017-11-03T12:07:20.229Z,19.67
2017-11-03T12:09:48.613Z,22.60
2017-11-03T12:12:16.637Z,26.97
2017-11-03T12:14:45.757Z,27.17
2017-11-03T12:17:13.744Z,32.67
2017-11-03T12:19:41.719Z,11.07
2017-11-03T12:22:09.718Z,10.67
2017-11-03T12:24:37.606Z,8.77
2017-11-03T12:27:06.364Z,10.03
2017-11-03T12:29:34.294Z,14.30
2017-11-03T12:32:02.382Z,11.47
2017-11-03T12:34:30.330Z,14.10
2017-11-03T12:36:58.264Z,19.67
2017-11-03T12:39:26.995Z,18.33
2017-11-03T12:41:55.286Z,10.83
2017-11-03T12:44:23.303Z,14.20
2017-11-03T12:46:51.261Z,10.37
2017-11-03T12:49:21.253Z,8.40
2017-11-03T12:51:49.152Z,9.53
2017-11-03T12:54:17.906Z,7.70
2017-11-03T12:56:45.952Z,15.40
2017-11-03T12:59:13.872Z,14.43
2017-11-03T13:01:42.576Z,19.63
2017-11-03T13:04:10.549Z,9.60
2017-11-03T13:06:38.438Z,11.13
2017-11-03T13:09:06.416Z,12.00
2017-11-03T13:11:34.717Z,12.53
2017-11-03T13:14:02.634Z,17.23
2017-11-03T13:16:32.661Z,12.67
2017-11-03T13:19:01.460Z,18.33
2017-11-03T13:21:29.433Z,16.63
2017-11-03T13:23:57.349Z,10.00
2017-11-03T13:26:26.062Z,8.80
2017-11-03T13:28:54.110Z,10.27
2017-11-03T13:31:22.054Z,10.70
2017-11-03T13:33:50.017Z,18.90
2017-11-03T13:36:17.995Z,13.37
2017-11-03T13:38:45.970Z,16.00
2017-11-03T13:41:14.809Z,14.07
2017-11-03T13:43:42.865Z,14.63
2017-11-03T13:46:10.828Z,10.17
2017-11-03T13:48:38.852Z,17.13
2017-11-03T13:51:06.809Z,17.00
2017-11-03T13:53:44.365Z,22.17
2017-11-03T13:56:12.446Z,10.97
2017-11-03T13:58:40.350Z,14.93
2017-11-03T14:01:10.334Z,13.70
2017-11-03T14:03:38.327Z,16.73
2017-11-03T14:06:06.338Z,13.73
2017-11-03T14:08:34.951Z,15.40
2017-11-03T14:11:02.854Z,14.97
2017-11-03T14:13:30.856Z,10.13
2017-11-03T14:16:00.422Z,13.63
2017-11-03T14:18:28.265Z,12.43
2017-11-03T14:20:56.082Z,13.10
2017-11-03T14:23:24.886Z,15.47
2017-11-03T14:25:53.527Z,9.50
2017-11-03T14:28:21.440Z,16.77
2017-11-03T14:30:49.341Z,16.03
2017-11-03T14:33:17.224Z,9.97
2017-11-03T14:35:45.081Z,12.40
2017-11-03T14:38:14.474Z,17.27
2017-11-03T14:40:42.499Z,14.73
2017-11-03T14:43:11.974Z,21.73
2017-11-03T14:45:39.854Z,12.23
2017-11-03T14:48:07.783Z,13.90
2017-11-03T14:50:35.629Z,13.97
2017-11-03T14:53:03.480Z,15.50
2017-11-03T14:55:32.234Z,11.40
2017-11-03T14:58:00.118Z,20.70
2017-11-03T15:03:25.503Z,14.53
2017-11-03T15:08:58.255Z,13.50
2017-11-03T15:11:30.907Z,15.33
2017-11-03T15:13:58.957Z,22.27
2017-11-03T15:16:27.007Z,17.37
2017-11-03T15:18:58.174Z,20.47
2017-11-03T15:21:26.092Z,13.63
2017-11-03T15:23:55.582Z,21.07
2017-11-03T15:26:23.577Z,22.23
2017-11-03T15:28:51.527Z,17.93
2017-11-03T15:31:20.268Z,17.50
2017-11-03T15:33:48.284Z,18.20
2017-11-03T15:36:17.646Z,19.67
2017-11-03T15:38:45.538Z,27.70
2017-11-03T15:41:16.534Z,15.43
2017-11-03T15:43:45.339Z,19.47
2017-11-03T15:46:14.763Z,12.30
2017-11-03T15:48:44.656Z,13.77
2017-11-03T15:51:21.848Z,15.20
2017-11-03T15:53:51.067Z,22.43
2017-11-03T15:56:24.764Z,19.73
2017-11-03T15:59:04.118Z,19.63
2017-11-03T16:01:32.094Z,20.77
2017-11-03T16:04:05.652Z,14.70
2017-11-03T16:13:23.633Z,20.73
2017-11-03T16:15:51.512Z,15.27
2017-11-03T16:18:19.482Z,15.98
2017-11-03T16:20:47.304Z,15.63
2017-11-03T16:23:15.899Z,19.37
2017-11-03T16:25:43.824Z,16.40
2017-11-03T16:28:12.401Z,19.30
2017-11-03T16:30:41.004Z,14.68
2017-11-03T16:33:08.785Z,17.87
2017-11-03T16:35:36.916Z,14.07
2017-11-03T16:38:04.769Z,17.40
2017-11-03T16:40:32.576Z,15.83
2017-11-03T16:43:00.518Z,13.17
2017-11-03T16:45:29.172Z,18.63
2017-11-03T16:47:57.122Z,24.40
2017-11-03T16:50:27.937Z,18.77
2017-11-03T16:52:55.833Z,17.27
2017-11-03T16:55:23.693Z,17.33
2017-11-03T16:57:51.917Z,20.43
2017-11-03T17:00:20.656Z,18.23
2017-11-03T17:02:48.516Z,20.07
2017-11-03T17:05:16.341Z,25.20
2017-11-03T17:07:45.124Z,15.63
2017-11-03T17:10:13.776Z,16.33
2017-11-03T17:12:41.600Z,12.53
2017-11-03T17:15:09.484Z,28.23
2017-11-03T17:17:37.501Z,17.07
2017-11-03T17:20:05.467Z,18.97
2017-11-03T17:22:33.304Z,19.30
2017-11-03T17:25:01.138Z,24.87
2017-11-03T17:27:28.945Z,14.47
2017-11-03T17:29:56.746Z,13.23
2017-11-03T17:32:25.313Z,15.43
2017-11-03T17:34:53.117Z,23.67
2017-11-03T17:37:20.938Z,18.13
2017-11-03T17:39:48.847Z,13.73
2017-11-03T17:42:16.655Z,17.67
2017-11-03T17:44:44.484Z,26.17
2017-11-03T17:47:12.272Z,21.83
2017-11-03T17:49:40.108Z,17.27
2017-11-03T17:52:07.912Z,30.90
2017-11-03T17:54:35.812Z,14.27
2017-11-03T17:57:04.455Z,16.10
2017-11-03T17:59:32.423Z,17.30
2017-11-03T18:02:00.267Z,27.20
2017-11-03T18:04:28.108Z,16.43
2017-11-03T18:06:56.776Z,17.87
2017-11-03T18:09:24.648Z,18.13
2017-11-03T18:11:52.584Z,21.07
2017-11-03T18:14:20.444Z,20.30
2017-11-03T18:16:49.054Z,23.77
2017-11-03T18:19:17.386Z,21.93
2017-11-03T18:21:45.229Z,24.07
2017-11-03T18:24:13.097Z,25.20
2017-11-03T18:26:40.932Z,21.33
2017-11-03T18:29:09.593Z,21.70
2017-11-03T18:31:37.465Z,24.03
2017-11-03T18:34:05.343Z,20.87
2017-11-03T18:36:33.287Z,21.80
2017-11-03T18:39:01.121Z,19.03
2017-11-03T18:41:29.082Z,21.00
2017-11-03T18:43:57.704Z,25.33
2017-11-03T18:46:25.520Z,29.67
2017-11-03T18:48:54.080Z,70.73
2017-11-03T18:51:21.885Z,63.03
2017-11-03T18:53:49.754Z,41.73
2017-11-03T18:56:17.952Z,43.50
2017-11-03T18:58:45.837Z,25.13
2017-11-03T19:01:13.676Z,26.13
2017-11-03T19:03:41.529Z,29.33
2017-11-03T19:06:09.535Z,20.03
2017-11-03T19:08:37.337Z,35.03
2017-11-03T19:11:06.033Z,23.97
2017-11-03T19:13:33.935Z,22.73
2017-11-03T19:16:01.896Z,22.47
2017-11-03T19:18:29.750Z,28.13
2017-11-03T19:20:57.919Z,24.03
2017-11-03T19:23:25.836Z,29.57
2017-11-03T19:25:53.791Z,27.07
2017-11-03T19:28:21.633Z,34.20
2017-11-03T19:30:49.547Z,34.40
2017-11-03T19:33:17.353Z,26.03
2017-11-03T19:35:45.209Z,24.73
2017-11-03T19:38:13.856Z,27.47
2017-11-03T19:40:41.921Z,25.80
2017-11-03T19:43:09.793Z,23.37
2017-11-03T19:45:37.628Z,30.63
2017-11-03T19:48:05.577Z,26.20
2017-11-03T19:50:33.451Z,28.63
2017-11-03T19:53:01.481Z,24.23
2017-11-03T19:55:29.544Z,32.37
2017-11-03T19:57:58.518Z,31.20
2017-11-03T20:00:26.343Z,29.23
2017-11-03T20:02:54.878Z,35.23
2017-11-03T20:05:22.912Z,30.80
2017-11-03T20:07:50.723Z,28.90
2017-11-03T20:10:18.611Z,22.13
2017-11-03T20:12:47.216Z,28.33
2017-11-03T20:15:15.020Z,39.87
2017-11-03T20:17:42.908Z,32.00
2017-11-03T20:20:10.756Z,33.33
2017-11-03T20:22:38.612Z,35.17
2017-11-03T20:25:06.418Z,29.77
2017-11-03T20:27:35.027Z,27.80
2017-11-03T20:30:02.988Z,38.17
2017-11-03T20:32:30.907Z,31.77
2017-11-03T20:34:58.766Z,26.27
2017-11-03T20:37:26.580Z,23.60
2017-11-03T20:39:56.621Z,25.13
2017-11-03T20:42:25.356Z,27.37
2017-11-03T20:44:54.195Z,24.80
2017-11-03T20:47:22.140Z,36.77
2017-11-03T20:49:54.365Z,35.73
2017-11-03T20:52:40.378Z,35.03
2017-11-03T20:55:25.037Z,41.17
2017-11-03T20:57:55.391Z,29.30
2017-11-03T21:00:25.444Z,39.40
2017-11-03T21:02:58.573Z,36.80
2017-11-03T21:05:30.353Z,33.50
2017-11-03T21:08:08.363Z,50.80
2017-11-03T21:10:54.397Z,43.18
2017-11-03T21:13:35.934Z,44.93
2017-11-03T21:16:04.594Z,36.43
2017-11-03T21:18:33.696Z,27.70
2017-11-03T21:21:01.687Z,27.90
2017-11-03T21:23:36.276Z,23.03
2017-11-03T21:26:07.066Z,28.30
2017-11-03T21:28:38.944Z,22.93
2017-11-03T21:31:34.379Z,29.73
2017-11-03T21:34:10.217Z,23.20
2017-11-03T21:36:42.774Z,30.03
2017-11-03T21:39:10.732Z,29.10
2017-11-03T21:41:43.392Z,24.57
2017-11-03T21:44:12.342Z,20.43
2017-11-03T21:47:12.791Z,20.03
2017-11-03T21:49:40.954Z,29.23
2017-11-03T21:52:09.596Z,28.57
2017-11-03T21:54:38.319Z,21.00
2017-11-03T21:57:06.152Z,28.17
2017-11-03T21:59:33.953Z,25.83
2017-11-03T22:02:01.849Z,28.00
2017-11-03T22:04:30.483Z,22.37
2017-11-03T22:06:58.304Z,23.08
2017-11-03T22:09:26.917Z,32.00
2017-11-03T22:11:54.847Z,25.63
2017-11-03T22:14:23.490Z,23.62
2017-11-03T22:16:51.492Z,25.17
2017-11-03T22:19:20.222Z,24.87
2017-11-03T22:21:48.021Z,31.63
2017-11-03T22:24:16.194Z,25.03
2017-11-03T22:26:44.052Z,30.73
2017-11-03T22:29:11.994Z,27.80
2017-11-03T22:31:39.803Z,26.95
2017-11-03T22:34:07.668Z,25.80
2017-11-03T22:36:35.492Z,26.62
2017-11-03T22:39:03.461Z,23.30
2017-11-03T22:41:31.616Z,17.42
2017-11-03T22:43:59.417Z,15.63
2017-11-03T22:46:27.269Z,20.30
2017-11-03T22:48:55.258Z,15.90
2017-11-03T22:51:23.105Z,14.90
2017-11-03T22:53:50.991Z,15.67
2017-11-03T22:56:18.809Z,16.17
2017-11-03T22:58:46.639Z,12.80
2017-11-03T23:01:14.517Z,18.53
2017-11-03T23:03:42.398Z,15.70
2017-11-03T23:06:11.000Z,18.50
2017-11-03T23:08:38.810Z,16.97
2017-11-03T23:11:06.625Z,13.90
2017-11-03T23:13:34.495Z,19.30
2017-11-03T23:16:02.345Z,18.13
2017-11-03T23:18:31.976Z,22.23
2017-11-03T23:20:59.771Z,18.83
2017-11-03T23:23:27.759Z,17.60
2017-11-03T23:25:56.410Z,23.80
2017-11-03T23:28:24.232Z,21.13
2017-11-03T23:30:52.847Z,21.20
2017-11-03T23:33:20.641Z,20.93
2017-11-03T23:35:48.445Z,22.90
2017-11-03T23:38:17.124Z,24.00
2017-11-03T23:40:46.855Z,21.23
2017-11-03T23:43:15.531Z,21.47
2017-11-03T23:45:44.125Z,19.57
2017-11-03T23:48:12.030Z,25.03
2017-11-03T23:50:39.896Z,16.10
2017-11-03T23:53:07.823Z,14.17
2017-11-03T23:55:36.425Z,20.23
2017-11-03T23:58:04.280Z,21.57
